Time,TemperatureF,DewpointF,PressureIn,WindDirection,WindDirectionDegrees,WindSpeedMPH,WindSpeedGustMPH,Humidity,HourlyPrecipIn,Conditions,Clouds,dailyrainin,SoftwareType,DateUTC
2013-08-20 08:43:00,68.0,50.0,29.78,West,270,1.0,5.0,52,-99.99,,,-99.99,,2013-08-20 15:43:00,
2013-08-20 08:53:00,70.0,51.0,29.80,WSW,240,4.0,8.0,51,-99.99,,,-99.99,,2013-08-20 15:53:00,
2013-08-20 09:04:00,70.0,51.0,29.80,WSW,240,4.0,8.0,51,-99.99,,,-99.99,,2013-08-20 16:04:00,
2013-08-20 09:30:00,-999.0,-99.9,29.77,South,191,5.0,17.0,41,-99.99,,,-99.99,,2013-08-20 16:30:00,
2013-08-20 09:42:00,76.0,50.0,29.76,SW,217,16.0,18.0,40,-99.99,,,-99.99,,2013-08-20 16:42:00,
2013-08-20 09:53:00,77.0,47.0,29.80,SSW,211,6.0,22.0,35,-99.99,,,-99.99,,2013-08-20 16:53:00,
2013-08-20 10:03:00,77.0,47.0,29.80,SSW,211,6.0,22.0,35,-99.99,,,-99.99,,2013-08-20 17:03:00,
2013-08-20 10:24:00,77.0,47.0,29.78,SW,226,13.0,21.0,34,-99.99,,,-99.99,,2013-08-20 17:24:00,
2013-08-20 10:34:00,77.0,47.0,29.78,SW,226,13.0,21.0,34,-99.99,,,-99.99,,2013-08-20 17:34:00,
2013-08-20 10:52:00,78.0,47.0,29.80,SW,232,9.0,16.0,34,-99.99,,,-99.99,,2013-08-20 17:52:00,
2013-08-20 11:02:00,78.0,47.0,29.80,SW,232,9.0,16.0,34,-99.99,,,-99.99,,2013-08-20 18:02:00,
2013-08-20 11:22:00,78.0,47.0,29.79,West,265,11.0,19.0,33,-99.99,,,-99.99,,2013-08-20 18:22:00,
2013-08-20 11:43:00,79.0,46.0,29.79,West,275,2.0,19.0,32,-99.99,,,-99.99,,2013-08-20 18:43:00,
2013-08-20 11:52:00,79.0,46.0,29.78,West,264,7.0,20.0,31,-99.99,,,-99.99,,2013-08-20 18:52:00,
2013-08-20 12:01:00,79.0,46.0,29.78,West,264,7.0,20.0,31,-99.99,,,-99.99,,2013-08-20 19:01:00,
2013-08-20 12:21:00,81.0,48.0,29.76,South,191,5.0,16.0,31,-99.99,,,-99.99,,2013-08-20 19:21:00,
2013-08-20 12:42:00,81.0,47.0,29.75,SW,236,7.0,21.0,31,-99.99,,,-99.99,,2013-08-20 19:42:00,
2013-08-20 12:52:00,81.0,46.0,29.75,West,281,3.0,19.0,29,-99.99,,,-99.99,,2013-08-20 19:52:00,
2013-08-20 13:03:00,81.0,46.0,29.75,West,281,3.0,19.0,29,-99.99,,,-99.99,,2013-08-20 20:03:00,
2013-08-20 13:21:00,81.0,47.0,29.75,WNW,284,12.0,19.0,30,-99.99,,,-99.99,,2013-08-20 20:21:00,
2013-08-20 13:42:00,81.0,47.0,29.75,WSW,239,1.0,19.0,30,-99.99,,,-99.99,,2013-08-20 20:42:00,
2013-08-20 13:52:00,81.0,46.0,29.75,SW,219,9.0,14.0,29,-99.99,,,-99.99,,2013-08-20 20:52:00,
2013-08-20 14:02:00,81.0,46.0,29.75,SW,219,9.0,14.0,29,-99.99,,,-99.99,,2013-08-20 21:02:00,
2013-08-20 14:22:00,81.0,46.0,29.74,WNW,284,9.0,12.0,30,-99.99,,,-99.99,,2013-08-20 21:22:00,
2013-08-20 14:44:00,81.0,46.0,29.74,WNW,291,0.0,12.0,29,-99.99,,,-99.99,,2013-08-20 21:44:00,
2013-08-20 14:55:00,81.0,46.0,29.74,WNW,292,0.0,7.0,29,-99.99,,,-99.99,,2013-08-20 21:55:00,
2013-08-20 15:04:00,81.0,46.0,29.74,WNW,292,0.0,7.0,29,-99.99,,,-99.99,,2013-08-20 22:04:00,
2013-08-20 15:24:00,81.0,46.0,29.74,WNW,283,1.0,9.0,30,-99.99,,,-99.99,,2013-08-20 22:24:00,
2013-08-20 15:42:00,81.0,47.0,29.74,WNW,283,2.0,9.0,30,-99.99,,,-99.99,,2013-08-20 22:42:00,
2013-08-20 15:53:00,82.0,47.0,29.73,WNW,283,1.0,4.0,30,-99.99,,,-99.99,,2013-08-20 22:53:00,
2013-08-20 16:03:00,82.0,47.0,29.73,WNW,283,1.0,4.0,30,-99.99,,,-99.99,,2013-08-20 23:03:00,
2013-08-20 16:22:00,81.0,47.0,29.73,WNW,283,0.0,2.0,30,-99.99,,,-99.99,,2013-08-20 23:22:00,
2013-08-20 16:42:00,81.0,48.0,29.73,SW,230,3.0,7.0,32,-99.99,,,-99.99,,2013-08-20 23:42:00,
2013-08-20 16:53:00,81.0,48.0,29.73,SW,229,3.0,5.0,32,-99.99,,,-99.99,,2013-08-20 23:53:00,
2013-08-20 17:12:00,80.0,48.0,29.72,SW,214,4.0,7.0,32,-99.99,,,-99.99,,2013-08-21 00:12:00,
2013-08-20 17:22:00,81.0,47.0,29.72,SSW,199,2.0,7.0,31,-99.99,,,-99.99,,2013-08-21 00:22:00,
2013-08-20 17:42:00,81.0,47.0,29.72,SSE,156,4.0,10.0,31,-99.99,,,-99.99,,2013-08-21 00:42:00,
2013-08-20 17:52:00,81.0,47.0,29.73,SSE,156,0.0,7.0,31,-99.99,,,-99.99,,2013-08-21 00:52:00,
2013-08-20 18:02:00,81.0,47.0,29.73,SSE,156,0.0,7.0,31,-99.99,,,-99.99,,2013-08-21 01:02:00,
2013-08-20 18:21:00,81.0,50.0,29.72,NNE,30,10.0,12.0,34,-99.99,,,-99.99,,2013-08-21 01:21:00,
2013-08-20 18:42:00,77.0,48.0,29.73,NNE,25,3.0,13.0,36,-99.99,,,-99.99,,2013-08-21 01:42:00,
2013-08-20 18:52:00,77.0,47.0,29.73,NE,34,3.0,11.0,35,-99.99,,,-99.99,,2013-08-21 01:52:00,
2013-08-20 19:02:00,77.0,47.0,29.73,NE,34,3.0,11.0,35,-99.99,,,-99.99,,2013-08-21 02:02:00,
2013-08-20 19:22:00,77.0,49.0,29.73,NNE,33,3.0,4.0,37,-99.99,,,-99.99,,2013-08-21 02:22:00,
2013-08-20 19:42:00,76.0,48.0,29.74,NNE,30,4.0,6.0,38,-99.99,,,-99.99,,2013-08-21 02:42:00,
2013-08-20 19:52:00,76.0,49.0,29.67,NNE,31,3.0,6.0,39,-99.99,,,-99.99,,2013-08-21 02:52:00,
2013-08-20 20:02:00,76.0,49.0,29.67,NNE,31,3.0,6.0,39,-99.99,,,-99.99,,2013-08-21 03:02:00,
2013-08-20 20:23:00,76.0,48.0,29.68,NNE,29,3.0,7.0,38,-99.99,,,-99.99,,2013-08-21 03:23:00,
2013-08-20 20:44:00,75.0,49.0,29.69,West,271,2.0,13.0,39,-99.99,,,-99.99,,2013-08-21 03:44:00,
2013-08-20 20:55:00,76.0,48.0,29.63,West,269,5.0,14.0,37,-99.99,,,-99.99,,2013-08-21 03:55:00,
2013-08-20 21:04:00,76.0,48.0,29.63,West,269,5.0,14.0,37,-99.99,,,-99.99,,2013-08-21 04:04:00,
2013-08-20 21:24:00,76.0,47.0,29.65,West,263,5.0,14.0,35,-99.99,,,-99.99,,2013-08-21 04:24:00,
2013-08-20 21:54:00,73.0,50.0,29.65,West,262,0.0,4.0,44,-99.99,,,-99.99,,2013-08-21 04:54:00,
2013-08-20 22:12:00,69.0,50.0,29.68,West,261,0.0,4.0,51,-99.99,,,-99.99,,2013-08-21 05:12:00,
2013-08-20 22:22:00,67.0,50.0,29.69,West,262,0.0,2.0,54,-99.99,,,-99.99,,2013-08-21 05:22:00,
2013-08-20 22:43:00,65.0,50.0,29.70,West,262,0.0,3.0,59,-99.99,,,-99.99,,2013-08-21 05:43:00,
2013-08-20 22:52:00,65.0,50.0,29.69,West,262,0.0,3.0,58,-99.99,,,-99.99,,2013-08-21 05:52:00,
2013-08-20 23:12:00,66.0,49.0,29.69,West,261,0.0,5.0,56,-99.99,,,-99.99,,2013-08-21 06:12:00,
2013-08-20 23:22:00,65.0,49.0,29.69,West,261,0.0,3.0,56,-99.99,,,-99.99,,2013-08-21 06:22:00,
2013-08-20 23:42:00,65.0,49.0,29.70,West,261,3.0,3.0,58,-99.99,,,-99.99,,2013-08-21 06:42:00,
2013-08-20 23:52:00,70.0,48.0,29.66,SSW,213,11.0,13.0,45,-99.99,,,-99.99,,2013-08-21 06:52:00,